Time;durP1;ratioP1;P1;durP2;ratioP2;P2;SDS_P1;SDS_P2;PMS_P1;PMS_P2;Temp;Humidity;BMP_temperature;BMP_pressure;BME280_temperature;BME280_humidity;BME280_pressure;Samples;Min_cycle;Max_cycle;Signal;HPM_P1;HPM_P2
2024/03/16 00:02:00;;;;;;;;;;;;;;;21.18;27.63;98196.72;5014823;28;958;-81
2024/03/16 00:04:26;;;;;;;;;;;;;;;21.04;27.78;98198.63;4998217;28;1977;-81
2024/03/16 00:06:52;;;;;;;;;;;;;;;21.57;27.13;98193.03;5014741;28;771;-81
2024/03/16 00:09:18;;;;;;;;;;;;;;;21.58;27.11;98197.47;5014327;28;1572;-82
2024/03/16 00:11:44;;;;;;;;;;;;;;;21.60;27.22;98189.31;4982985;28;972;-81
2024/03/16 00:14:09;;;;;;;;;;;;;;;21.84;26.73;98204.13;5057432;28;891;-81
2024/03/16 00:16:35;;;;;;;;;;;;;;;21.66;26.87;98193.25;5022616;28;1060;-81
2024/03/16 00:19:00;;;;;;;;;;;;;;;21.39;27.58;98201.13;5021681;28;1234;-81
2024/03/16 00:21:26;;;;;;;;;;;;;;;21.12;27.68;98196.44;5039030;28;809;-81
2024/03/16 00:23:53;;;;;;;;;;;;;;;21.50;27.19;98190.34;5022138;28;1910;-81
2024/03/16 00:26:18;;;;;;;;;;;;;;;21.74;26.85;98199.50;5009038;28;1231;-81
2024/03/16 00:28:44;;;;;;;;;;;;;;;21.95;26.87;98192.53;4991073;28;1758;-81
2024/03/16 00:31:10;;;;;;;;;;;;;;;21.85;27.04;98198.00;5042968;28;1045;-81
2024/03/16 00:33:35;;;;;;;;;;;;;;;21.71;27.32;98195.53;5057360;28;1457;-81
2024/03/16 00:36:01;;;;;;;;;;;;;;;21.65;27.31;98196.50;5025786;28;867;-81
2024/03/16 00:38:26;;;;;;;;;;;;;;;21.55;27.37;98195.50;5040787;28;803;-81
2024/03/16 00:40:52;;;;;;;;;;;;;;;21.35;27.51;98189.91;5074960;28;863;-82
2024/03/16 00:43:18;;;;;;;;;;;;;;;21.67;27.34;98189.16;5040685;28;1991;-81
2024/03/16 00:45:44;;;;;;;;;;;;;;;21.62;27.30;98201.00;5025637;28;1384;-81
2024/03/16 00:48:09;;;;;;;;;;;;;;;21.71;27.18;98198.38;5040813;28;839;-81
2024/03/16 00:50:35;;;;;;;;;;;;;;;21.82;27.09;98200.94;5025004;28;1085;-82
2024/03/16 00:53:00;;;;;;;;;;;;;;;21.63;27.41;98193.31;5024064;28;834;-81
2024/03/16 00:55:26;;;;;;;;;;;;;;;21.66;27.04;98198.91;5041912;28;935;-81
2024/03/16 00:57:51;;;;;;;;;;;;;;;21.42;27.44;98208.75;5074546;28;846;-82
2024/03/16 01:00:18;;;;;;;;;;;;;;;21.73;27.33;98193.06;5024205;28;883;-81
2024/03/16 01:02:43;;;;;;;;;;;;;;;21.60;27.50;98194.97;5024715;28;1971;-81
2024/03/16 01:05:09;;;;;;;;;;;;;;;21.70;27.18;98187.47;5041494;28;1135;-82
2024/03/16 01:07:35;;;;;;;;;;;;;;;21.70;27.27;98188.25;5041950;28;834;-81
2024/03/16 01:10:00;;;;;;;;;;;;;;;21.84;27.16;98187.94;5041461;28;786;-81
2024/03/16 01:12:26;;;;;;;;;;;;;;;21.26;27.71;98193.31;5025474;28;819;-81
2024/03/16 01:14:51;;;;;;;;;;;;;;;21.35;27.68;98187.09;5041764;28;826;-81
2024/03/16 01:17:17;;;;;;;;;;;;;;;21.75;27.27;98184.91;5024894;28;799;-81
2024/03/16 01:19:43;;;;;;;;;;;;;;;21.85;27.08;98183.84;5040172;28;728;-81
2024/03/16 01:22:09;;;;;;;;;;;;;;;21.81;27.00;98186.00;5025022;28;932;-81
2024/03/16 01:24:35;;;;;;;;;;;;;;;21.94;26.80;98185.28;5041727;28;1910;-81
2024/03/16 01:27:00;;;;;;;;;;;;;;;21.41;27.37;98187.34;5040982;28;1195;-82
2024/03/16 01:29:26;;;;;;;;;;;;;;;21.18;27.87;98185.41;5040448;28;888;-81
2024/03/16 01:31:51;;;;;;;;;;;;;;;21.46;27.30;98184.81;5074783;28;893;-80
2024/03/16 01:34:17;;;;;;;;;;;;;;;21.56;27.38;98180.13;5039308;28;903;-82
2024/03/16 01:36:42;;;;;;;;;;;;;;;21.72;26.93;98180.16;5039373;28;766;-81
2024/03/16 01:39:12;;;;;;;;;;;;;;;21.77;26.96;98185.28;5039540;28;1042;-82
2024/03/16 01:41:38;;;;;;;;;;;;;;;21.88;26.73;98181.38;5024082;28;1117;-81
2024/03/16 01:44:09;;;;;;;;;;;;;;;21.67;27.09;98188.38;5038435;28;1974;-81
2024/03/16 01:46:34;;;;;;;;;;;;;;;21.38;27.24;98176.91;5003684;28;896;-82
2024/03/16 01:49:00;;;;;;;;;;;;;;;21.23;27.23;98182.84;5018871;28;811;-82
2024/03/16 01:51:29;;;;;;;;;;;;;;;21.40;27.33;98174.41;5019508;28;957;-81
2024/03/16 01:53:54;;;;;;;;;;;;;;;21.66;27.07;98170.59;5019151;28;914;-82
2024/03/16 01:56:20;;;;;;;;;;;;;;;21.56;27.20;98178.09;5019907;28;880;-82
2024/03/16 01:58:48;;;;;;;;;;;;;;;21.83;26.94;98179.88;5002144;28;799;-81
2024/03/16 02:01:14;;;;;;;;;;;;;;;21.73;26.88;98183.78;5003734;28;850;-81
2024/03/16 02:03:40;;;;;;;;;;;;;;;21.70;26.86;98181.81;5018633;28;1918;-82
2024/03/16 02:06:06;;;;;;;;;;;;;;;21.60;26.69;98178.00;5020417;28;897;-81
2024/03/16 02:08:31;;;;;;;;;;;;;;;21.40;26.97;98175.25;5002230;28;886;-81
2024/03/16 02:10:57;;;;;;;;;;;;;;;21.70;26.73;98181.81;5019553;28;921;-81
2024/03/16 02:13:22;;;;;;;;;;;;;;;21.50;27.14;98173.38;5018406;28;974;-82
2024/03/16 02:15:48;;;;;;;;;;;;;;;21.58;26.92;98174.81;5003123;28;976;-81
2024/03/16 02:18:13;;;;;;;;;;;;;;;21.68;26.80;98165.25;5035790;28;890;-82
2024/03/16 02:20:39;;;;;;;;;;;;;;;21.85;26.68;98172.50;5041298;28;1106;-81
2024/03/16 02:23:05;;;;;;;;;;;;;;;21.92;26.50;98187.75;5039241;28;1965;-81
2024/03/16 02:25:30;;;;;;;;;;;;;;;21.79;26.20;98179.97;5040127;28;921;-81
2024/03/16 02:27:56;;;;;;;;;;;;;;;21.84;26.14;98179.44;5040927;28;1199;-82
2024/03/16 02:30:21;;;;;;;;;;;;;;;21.43;26.70;98182.03;5041159;28;810;-82
2024/03/16 02:32:47;;;;;;;;;;;;;;;21.62;26.90;98192.53;5040186;28;1176;-81
2024/03/16 02:35:12;;;;;;;;;;;;;;;21.54;26.72;98188.25;5023182;28;787;-82
2024/03/16 02:37:38;;;;;;;;;;;;;;;21.69;26.74;98198.00;5039309;28;975;-82
2024/03/16 02:40:04;;;;;;;;;;;;;;;21.88;26.55;98192.72;5039069;28;797;-82
2024/03/16 02:42:29;;;;;;;;;;;;;;;21.79;26.31;98190.50;5023575;28;1198;-82
2024/03/16 02:44:55;;;;;;;;;;;;;;;21.41;26.89;98188.16;5038683;28;1894;-81
2024/03/16 02:47:20;;;;;;;;;;;;;;;21.32;27.02;98190.78;5023050;28;948;-81
2024/03/16 02:49:49;;;;;;;;;;;;;;;21.73;26.45;98192.25;5021832;28;852;-82
2024/03/16 02:52:14;;;;;;;;;;;;;;;21.70;26.51;98188.25;5040009;28;827;-82
2024/03/16 02:54:40;;;;;;;;;;;;;;;21.49;26.91;98191.59;5001804;28;1229;-82
2024/03/16 02:57:05;;;;;;;;;;;;;;;21.56;26.59;98194.28;5002821;28;864;-81
2024/03/16 02:59:31;;;;;;;;;;;;;;;21.69;26.46;98197.22;5001623;28;823;-81
2024/03/16 03:01:57;;;;;;;;;;;;;;;21.68;26.71;98189.97;5003306;28;894;-81
2024/03/16 03:04:23;;;;;;;;;;;;;;;21.68;26.54;98196.41;4985242;28;1981;-82
2024/03/16 03:06:48;;;;;;;;;;;;;;;21.19;26.99;98204.78;5002268;28;963;-81
2024/03/16 03:09:14;;;;;;;;;;;;;;;21.12;27.04;98199.28;4985560;28;915;-82
2024/03/16 03:11:39;;;;;;;;;;;;;;;21.36;27.06;98202.03;4986214;28;1151;-82
2024/03/16 03:14:08;;;;;;;;;;;;;;;21.54;26.74;98203.19;5001707;28;885;-82
2024/03/16 03:16:34;;;;;;;;;;;;;;;21.67;26.69;98211.03;4986440;28;840;-82
2024/03/16 03:18:59;;;;;;;;;;;;;;;21.68;26.28;98207.75;4985462;28;780;-81
2024/03/16 03:21:25;;;;;;;;;;;;;;;21.83;26.41;98220.31;5002347;28;948;-81
2024/03/16 03:23:50;;;;;;;;;;;;;;;21.31;27.00;98220.31;5000758;28;1911;-82
2024/03/16 03:26:16;;;;;;;;;;;;;;;21.16;27.07;98216.97;5009136;28;1141;-80
2024/03/16 03:28:42;;;;;;;;;;;;;;;21.46;26.93;98223.63;5017290;28;957;-81
2024/03/16 03:31:08;;;;;;;;;;;;;;;21.46;26.97;98217.97;5002156;28;959;-81
2024/03/16 03:33:33;;;;;;;;;;;;;;;21.68;26.58;98219.06;5001077;28;1105;-81
2024/03/16 03:36:02;;;;;;;;;;;;;;;21.64;26.56;98224.00;5002751;28;717;-81
2024/03/16 03:38:28;;;;;;;;;;;;;;;21.77;26.53;98219.25;4984916;28;905;-81
2024/03/16 03:40:53;;;;;;;;;;;;;;;21.82;26.50;98218.75;5001588;28;946;-82
2024/03/16 03:43:22;;;;;;;;;;;;;;;21.70;26.34;98219.41;4984592;28;1907;-82
2024/03/16 03:45:52;;;;;;;;;;;;;;;21.47;26.66;98219.56;5018282;28;965;-81
2024/03/16 03:50:49;;;;;;;;;;;;;;;21.56;26.62;98229.06;5034323;28;905;-80
2024/03/16 03:53:16;;;;;;;;;;;;;;;21.65;26.47;98231.28;5017115;28;1126;-81
2024/03/16 03:55:41;;;;;;;;;;;;;;;21.55;26.58;98232.31;5001715;28;947;-81
2024/03/16 03:58:07;;;;;;;;;;;;;;;21.88;26.41;98226.72;4981310;28;949;-81
2024/03/16 04:00:33;;;;;;;;;;;;;;;21.77;26.45;98221.31;4985793;28;966;-81
2024/03/16 04:03:06;;;;;;;;;;;;;;;21.26;27.02;98221.59;4989378;28;1979;-81
2024/03/16 04:05:34;;;;;;;;;;;;;;;21.27;26.86;98228.84;5005687;28;754;-81
2024/03/16 04:08:00;;;;;;;;;;;;;;;21.69;26.63;98237.66;4988561;28;1261;-81
2024/03/16 04:10:26;;;;;;;;;;;;;;;21.56;26.69;98236.75;4972788;28;1258;-81
2024/03/16 04:12:51;;;;;;;;;;;;;;;21.52;26.63;98233.19;5020713;28;854;-82
2024/03/16 04:15:17;;;;;;;;;;;;;;;21.59;26.67;98239.50;4985025;28;1240;-81
2024/03/16 04:17:42;;;;;;;;;;;;;;;21.71;26.30;98235.19;5001418;28;1111;-82
2024/03/16 04:20:10;;;;;;;;;;;;;;;21.60;26.33;98248.78;5000840;28;910;-81
2024/03/16 04:22:39;;;;;;;;;;;;;;;21.78;26.04;98249.19;5001957;28;788;-82
2024/03/16 04:25:07;;;;;;;;;;;;;;;21.19;26.64;98252.91;4984541;28;1962;-82
2024/03/16 04:27:32;;;;;;;;;;;;;;;21.53;26.51;98251.78;4969772;28;1067;-82
2024/03/16 04:29:58;;;;;;;;;;;;;;;21.66;26.28;98249.88;5000786;28;906;-81
2024/03/16 04:32:27;;;;;;;;;;;;;;;21.84;26.04;98250.25;4985265;28;1297;-81
2024/03/16 04:34:53;;;;;;;;;;;;;;;21.80;25.87;98249.53;4984946;28;1004;-82
2024/03/16 04:37:19;;;;;;;;;;;;;;;21.79;25.96;98255.63;4985169;28;1570;-81
2024/03/16 04:39:44;;;;;;;;;;;;;;;21.55;26.38;98261.44;5016691;28;1598;-81
2024/03/16 04:42:10;;;;;;;;;;;;;;;21.51;26.17;98262.75;4997882;28;1651;-81
2024/03/16 04:44:36;;;;;;;;;;;;;;;21.40;26.31;98253.69;4965067;28;1895;-82
2024/03/16 04:47:01;;;;;;;;;;;;;;;21.64;26.26;98269.31;5013852;28;936;-82
2024/03/16 04:49:27;;;;;;;;;;;;;;;21.47;26.59;98257.16;5020423;28;891;-82
2024/03/16 04:51:52;;;;;;;;;;;;;;;21.62;26.34;98260.47;5004859;28;1261;-82
2024/03/16 04:54:18;;;;;;;;;;;;;;;21.71;26.23;98263.50;5004253;28;996;-82
2024/03/16 04:56:43;;;;;;;;;;;;;;;21.70;26.24;98266.75;5031380;28;1389;-81
2024/03/16 04:59:11;;;;;;;;;;;;;;;21.80;25.92;98266.53;5019726;28;1504;-82
2024/03/16 05:01:36;;;;;;;;;;;;;;;21.78;26.02;98273.88;5020678;28;1349;-82
2024/03/16 05:04:03;;;;;;;;;;;;;;;21.73;25.72;98272.34;5020322;28;1887;-82
2024/03/16 05:06:31;;;;;;;;;;;;;;;21.43;26.00;98267.75;5021114;28;863;-82
2024/03/16 05:08:57;;;;;;;;;;;;;;;21.64;26.17;98266.50;4983567;28;1002;-82
2024/03/16 05:11:23;;;;;;;;;;;;;;;21.57;26.15;98275.16;5001361;28;870;-82
2024/03/16 05:13:49;;;;;;;;;;;;;;;21.61;26.31;98273.06;5000112;28;774;-82
2024/03/16 05:16:15;;;;;;;;;;;;;;;21.88;25.96;98278.50;4992613;28;1331;-82
2024/03/16 05:18:40;;;;;;;;;;;;;;;21.87;25.85;98278.94;5003085;28;878;-82
2024/03/16 05:21:06;;;;;;;;;;;;;;;21.67;25.96;98271.28;5001319;28;1459;-81
2024/03/16 05:23:32;;;;;;;;;;;;;;;21.23;26.72;98279.06;4984332;28;1895;-82
2024/03/16 05:25:59;;;;;;;;;;;;;;;21.08;26.89;98277.75;5000987;28;1112;-82
2024/03/16 05:28:24;;;;;;;;;;;;;;;21.38;26.64;98290.94;4983539;28;1177;-82
2024/03/16 05:30:53;;;;;;;;;;;;;;;21.56;26.37;98284.91;4965250;28;1533;-82
2024/03/16 05:33:18;;;;;;;;;;;;;;;21.56;26.39;98284.91;4958640;28;1339;-82
2024/03/16 05:35:44;;;;;;;;;;;;;;;21.77;26.31;98300.63;4984559;28;898;-82
2024/03/16 05:38:10;;;;;;;;;;;;;;;21.66;26.34;98283.84;4967956;28;799;-82
2024/03/16 05:40:40;;;;;;;;;;;;;;;21.65;26.23;98292.78;4987378;28;1292;-82
2024/03/16 05:43:06;;;;;;;;;;;;;;;21.73;26.09;98289.34;5006859;28;1966;-82
2024/03/16 05:45:31;;;;;;;;;;;;;;;21.63;26.14;98301.72;5039975;28;866;-82
2024/03/16 05:47:57;;;;;;;;;;;;;;;21.64;26.21;98283.47;5001701;28;1528;-82
2024/03/16 05:50:22;;;;;;;;;;;;;;;21.65;26.23;98290.72;5019973;28;951;-81
2024/03/16 05:52:48;;;;;;;;;;;;;;;21.60;26.17;98285.59;5019252;28;1081;-82
2024/03/16 05:55:15;;;;;;;;;;;;;;;21.72;26.07;98293.44;5003034;28;1151;-82
2024/03/16 05:57:41;;;;;;;;;;;;;;;21.62;26.34;98288.81;5020187;28;1443;-82
2024/03/16 06:00:13;;;;;;;;;;;;;;;21.37;26.56;98286.50;5002834;28;1100;-82
2024/03/16 06:02:41;;;;;;;;;;;;;;;21.23;26.57;98290.38;4971526;28;1377;-82
2024/03/16 06:05:07;;;;;;;;;;;;;;;21.68;26.11;98297.56;4964686;28;1907;-82
2024/03/16 06:07:33;;;;;;;;;;;;;;;21.60;26.27;98296.91;4941765;29;922;-82
2024/03/16 06:09:59;;;;;;;;;;;;;;;21.62;26.51;98300.13;4941453;29;984;-82
2024/03/16 06:12:27;;;;;;;;;;;;;;;21.73;26.29;98297.06;4942059;29;979;-82
2024/03/16 06:14:53;;;;;;;;;;;;;;;21.70;26.26;98295.88;4940940;29;874;-82
2024/03/16 06:17:18;;;;;;;;;;;;;;;21.68;26.25;98298.38;4941431;29;1778;-82
2024/03/16 06:19:44;;;;;;;;;;;;;;;21.52;26.58;98301.16;4928378;29;1275;-82
2024/03/16 06:22:10;;;;;;;;;;;;;;;21.19;26.69;98311.50;4977085;28;771;-82
2024/03/16 06:24:35;;;;;;;;;;;;;;;21.30;26.61;98307.28;4944262;29;1960;-82
2024/03/16 06:27:05;;;;;;;;;;;;;;;21.55;26.32;98306.75;4961153;29;1251;-82
2024/03/16 06:29:33;;;;;;;;;;;;;;;21.54;26.50;98315.66;4960642;29;889;-81
2024/03/16 06:32:08;;;;;;;;;;;;;;;21.79;26.11;98310.25;4977030;28;959;-82
2024/03/16 06:34:34;;;;;;;;;;;;;;;21.73;26.17;98303.50;4958728;29;989;-82
2024/03/16 06:37:00;;;;;;;;;;;;;;;21.45;26.36;98313.44;4977053;28;791;-82
2024/03/16 06:39:26;;;;;;;;;;;;;;;21.57;26.48;98320.47;5017086;28;1328;-82
2024/03/16 06:41:54;;;;;;;;;;;;;;;21.10;26.82;98312.09;5040238;28;807;-82
2024/03/16 06:44:20;;;;;;;;;;;;;;;21.38;26.62;98312.78;5040269;28;1902;-82
2024/03/16 06:46:46;;;;;;;;;;;;;;;21.70;26.33;98312.88;5040539;28;1452;-82
2024/03/16 06:49:11;;;;;;;;;;;;;;;21.79;26.21;98317.94;5039203;28;830;-81
2024/03/16 06:51:37;;;;;;;;;;;;;;;21.68;26.39;98332.34;5039569;28;835;-82
2024/03/16 06:54:03;;;;;;;;;;;;;;;21.71;26.23;98330.66;5039285;28;822;-82
2024/03/16 06:56:29;;;;;;;;;;;;;;;21.29;26.88;98333.13;5041195;28;856;-82
2024/03/16 06:58:55;;;;;;;;;;;;;;;21.17;26.84;98331.75;5038928;28;802;-82
2024/03/16 07:01:24;;;;;;;;;;;;;;;21.44;26.67;98328.81;5002696;28;1012;-82
2024/03/16 07:03:49;;;;;;;;;;;;;;;21.51;26.52;98333.53;4985586;28;1902;-81
2024/03/16 07:06:15;;;;;;;;;;;;;;;21.55;26.37;98334.25;5018927;28;797;-82
2024/03/16 07:08:40;;;;;;;;;;;;;;;21.69;26.46;98342.44;5001152;28;1011;-82
2024/03/16 07:11:06;;;;;;;;;;;;;;;21.62;26.61;98338.97;5019070;28;986;-82
2024/03/16 07:13:32;;;;;;;;;;;;;;;21.67;26.27;98342.09;5000875;28;985;-81
2024/03/16 07:15:57;;;;;;;;;;;;;;;21.40;26.63;98349.91;4986822;28;1147;-82
2024/03/16 07:18:23;;;;;;;;;;;;;;;21.22;27.06;98355.91;5016808;28;1713;-81
2024/03/16 07:20:48;;;;;;;;;;;;;;;21.57;26.48;98354.44;5002556;28;800;-82
2024/03/16 07:23:14;;;;;;;;;;;;;;;21.73;26.34;98357.31;5001497;28;1903;-82
2024/03/16 07:25:41;;;;;;;;;;;;;;;21.71;26.19;98359.81;5001686;28;929;-82
2024/03/16 07:28:07;;;;;;;;;;;;;;;21.79;26.18;98364.06;5000442;28;1471;-82
2024/03/16 07:30:34;;;;;;;;;;;;;;;21.68;26.41;98363.50;4985909;28;803;-82
2024/03/16 07:33:00;;;;;;;;;;;;;;;21.43;26.69;98363.22;5015987;28;1140;-82
2024/03/16 07:35:27;;;;;;;;;;;;;;;21.24;26.73;98368.41;5044343;28;896;-82
2024/03/16 07:37:53;;;;;;;;;;;;;;;21.38;26.69;98372.22;5076314;28;780;-82
2024/03/16 07:40:21;;;;;;;;;;;;;;;21.48;26.49;98369.16;5043087;28;811;-81
2024/03/16 07:42:47;;;;;;;;;;;;;;;21.59;26.46;98368.94;5039447;28;1460;-81
2024/03/16 07:45:14;;;;;;;;;;;;;;;21.73;26.03;98371.50;5018704;28;1343;-82
2024/03/16 07:47:40;;;;;;;;;;;;;;;21.83;25.97;98370.47;5018617;28;821;-81
2024/03/16 07:50:05;;;;;;;;;;;;;;;21.75;26.19;98371.03;4984686;28;1561;-82
2024/03/16 07:52:31;;;;;;;;;;;;;;;21.80;26.11;98374.16;4982766;28;907;-81
2024/03/16 07:54:58;;;;;;;;;;;;;;;21.67;26.21;98376.06;4982073;28;1019;-81
2024/03/16 07:57:24;;;;;;;;;;;;;;;21.28;26.89;98383.28;4967207;28;1204;-82
2024/03/16 07:59:49;;;;;;;;;;;;;;;21.67;26.18;98367.56;4966179;28;1183;-82
2024/03/16 08:02:15;;;;;;;;;;;;;;;21.79;26.02;98369.72;4964007;28;1080;-81
2024/03/16 08:04:40;;;;;;;;;;;;;;;21.85;25.87;98373.63;4962815;28;1983;-82
2024/03/16 08:07:06;;;;;;;;;;;;;;;21.74;26.12;98367.41;4963464;29;930;-82
2024/03/16 08:09:31;;;;;;;;;;;;;;;21.58;26.14;98368.16;4963037;29;1200;-81
2024/03/16 08:11:57;;;;;;;;;;;;;;;21.15;26.86;98373.84;4963277;29;952;-82
2024/03/16 08:14:23;;;;;;;;;;;;;;;21.39;26.90;98370.97;4961756;28;1301;-82
2024/03/16 08:16:48;;;;;;;;;;;;;;;21.60;26.23;98364.88;4962765;28;914;-82
2024/03/16 08:19:16;;;;;;;;;;;;;;;21.67;26.27;98359.09;4942497;29;1396;-82
2024/03/16 08:21:42;;;;;;;;;;;;;;;21.62;26.36;98365.25;4944146;28;1310;-82
2024/03/16 08:24:08;;;;;;;;;;;;;;;21.83;26.23;98356.28;4987306;28;1887;-82
2024/03/16 08:26:33;;;;;;;;;;;;;;;21.80;25.97;98362.81;4985660;28;1065;-82
2024/03/16 08:29:00;;;;;;;;;;;;;;;21.27;26.67;98364.69;5001163;28;1198;-81
2024/03/16 08:31:25;;;;;;;;;;;;;;;21.62;26.35;98364.47;5001605;28;929;-81
2024/03/16 08:33:51;;;;;;;;;;;;;;;21.75;26.31;98359.72;5011172;28;1366;-82
2024/03/16 08:36:16;;;;;;;;;;;;;;;21.81;26.31;98369.28;5005665;28;997;-82
2024/03/16 08:38:42;;;;;;;;;;;;;;;21.67;26.26;98376.06;5022421;28;759;-82
2024/03/16 08:41:07;;;;;;;;;;;;;;;21.66;26.46;98368.81;5043962;28;1636;-82
2024/03/16 08:43:33;;;;;;;;;;;;;;;21.79;26.38;98361.22;5040540;28;1945;-82
2024/03/16 08:46:06;;;;;;;;;;;;;;;21.57;26.75;98365.75;5041594;28;877;-82
2024/03/16 08:48:34;;;;;;;;;;;;;;;21.65;26.25;98361.53;5007996;28;1672;-82
2024/03/16 08:51:00;;;;;;;;;;;;;;;21.41;26.97;98352.34;5041705;28;1474;-81
2024/03/16 08:53:26;;;;;;;;;;;;;;;21.79;26.35;98355.56;5040359;28;1431;-81
2024/03/16 08:55:56;;;;;;;;;;;;;;;21.65;26.67;98355.88;5004388;28;1475;-82
2024/03/16 08:58:24;;;;;;;;;;;;;;;21.82;26.41;98356.75;4986473;28;1463;-81
2024/03/16 09:00:51;;;;;;;;;;;;;;;21.79;26.14;98355.56;4994391;28;1414;-82
2024/03/16 09:03:17;;;;;;;;;;;;;;;21.36;26.70;98347.19;4987388;28;1906;-81
2024/03/16 09:05:42;;;;;;;;;;;;;;;21.42;26.96;98358.78;5004279;28;1614;-81
2024/03/16 09:08:08;;;;;;;;;;;;;;;21.42;26.74;98353.13;5003442;28;1073;-81
2024/03/16 09:10:33;;;;;;;;;;;;;;;21.65;26.50;98350.19;5019601;28;957;-81
2024/03/16 09:12:59;;;;;;;;;;;;;;;21.78;26.21;98353.97;5020105;28;889;-82
2024/03/16 09:15:24;;;;;;;;;;;;;;;21.92;26.00;98357.75;5020146;28;918;-80
2024/03/16 09:17:50;;;;;;;;;;;;;;;21.74;26.30;98353.25;5019888;28;731;-80
2024/03/16 09:20:15;;;;;;;;;;;;;;;21.77;26.42;98351.59;5020258;28;892;-80
2024/03/16 09:22:42;;;;;;;;;;;;;;;21.66;26.52;98349.00;5003788;28;1072;-80
2024/03/16 09:25:08;;;;;;;;;;;;;;;21.14;27.24;98355.28;5002997;28;1914;-80
2024/03/16 09:27:37;;;;;;;;;;;;;;;21.39;27.06;98360.44;5013301;28;1155;-81
2024/03/16 09:30:06;;;;;;;;;;;;;;;21.79;26.25;98364.06;5021955;28;869;-81
2024/03/16 09:32:31;;;;;;;;;;;;;;;21.69;26.31;98350.94;5021445;28;833;-80
2024/03/16 09:34:57;;;;;;;;;;;;;;;21.61;26.50;98349.50;5053104;28;863;-81
2024/03/16 09:37:23;;;;;;;;;;;;;;;21.77;26.37;98358.06;5023609;28;1248;-81
2024/03/16 09:39:48;;;;;;;;;;;;;;;21.98;26.04;98348.28;5052793;28;775;-81
2024/03/16 09:42:14;;;;;;;;;;;;;;;21.61;26.28;98355.16;5023683;28;1161;-81
2024/03/16 09:44:40;;;;;;;;;;;;;;;21.21;26.81;98355.13;5006091;28;1910;-81
2024/03/16 09:47:07;;;;;;;;;;;;;;;21.45;26.54;98358.72;4968404;28;1069;-81
2024/03/16 09:49:35;;;;;;;;;;;;;;;21.54;26.86;98358.13;4967799;28;1248;-81
2024/03/16 09:52:03;;;;;;;;;;;;;;;21.44;26.57;98356.31;4985823;28;1501;-81
2024/03/16 09:54:28;;;;;;;;;;;;;;;21.66;26.72;98351.81;5002817;28;882;-81
2024/03/16 09:56:54;;;;;;;;;;;;;;;21.73;26.52;98357.31;5002315;28;787;-81
2024/03/16 09:59:21;;;;;;;;;;;;;;;21.76;26.42;98358.47;4986691;28;1026;-81
2024/03/16 10:01:49;;;;;;;;;;;;;;;21.53;26.66;98353.72;5003450;28;1169;-81
2024/03/16 10:04:16;;;;;;;;;;;;;;;21.49;26.85;98352.97;5001021;28;1906;-81
2024/03/16 10:06:42;;;;;;;;;;;;;;;21.31;27.12;98356.97;5018478;28;1308;-81
2024/03/16 10:09:12;;;;;;;;;;;;;;;21.75;26.50;98354.03;5018729;28;807;-81
2024/03/16 10:11:39;;;;;;;;;;;;;;;21.69;26.59;98348.09;5023036;28;1025;-81
2024/03/16 10:14:04;;;;;;;;;;;;;;;21.64;26.70;98354.28;5005122;28;924;-81
2024/03/16 10:16:31;;;;;;;;;;;;;;;21.47;26.67;98355.47;5034197;28;1689;-81
2024/03/16 10:18:57;;;;;;;;;;;;;;;21.46;26.68;98346.16;5037875;28;1126;-81
2024/03/16 10:21:22;;;;;;;;;;;;;;;21.47;26.87;98352.63;5003009;28;1139;-81
2024/03/16 10:23:48;;;;;;;;;;;;;;;21.07;27.11;98356.19;5001666;28;1973;-81
2024/03/16 10:26:13;;;;;;;;;;;;;;;21.65;26.53;98353.03;5015639;28;967;-81
2024/03/16 10:28:41;;;;;;;;;;;;;;;21.40;26.90;98361.25;4943352;29;1085;-81
2024/03/16 10:31:09;;;;;;;;;;;;;;;21.67;26.59;98349.78;4944349;29;1517;-81
2024/03/16 10:33:36;;;;;;;;;;;;;;;21.66;26.39;98357.50;4942339;28;1634;-81
2024/03/16 10:36:02;;;;;;;;;;;;;;;21.60;26.42;98353.53;4942561;29;848;-81
2024/03/16 10:38:29;;;;;;;;;;;;;;;21.19;27.18;98346.28;4940294;29;936;-81
2024/03/16 10:40:55;;;;;;;;;;;;;;;21.45;26.74;98346.59;4941526;29;988;-81
2024/03/16 10:43:20;;;;;;;;;;;;;;;21.54;26.87;98343.97;4954826;29;1902;-81
2024/03/16 10:45:46;;;;;;;;;;;;;;;21.71;26.38;98345.66;4961262;29;929;-81
2024/03/16 10:48:13;;;;;;;;;;;;;;;21.91;26.12;98347.63;4990140;28;1409;-81
2024/03/16 10:50:39;;;;;;;;;;;;;;;21.76;26.30;98345.13;5002990;28;1353;-81
2024/03/16 10:53:05;;;;;;;;;;;;;;;21.20;27.09;98342.22;4995109;28;1343;-81
2024/03/16 10:55:30;;;;;;;;;;;;;;;21.12;26.88;98340.75;4982485;28;948;-81
2024/03/16 10:57:56;;;;;;;;;;;;;;;21.79;26.29;98337.78;4998291;28;818;-81
2024/03/16 11:00:34;;;;;;;;;;;;;;;21.63;26.76;98334.91;4998999;28;820;-81
2024/03/16 11:03:01;;;;;;;;;;;;;;;21.71;26.55;98323.00;4982633;28;1898;-81
2024/03/16 11:05:35;;;;;;;;;;;;;;;21.72;26.20;98327.41;4978801;28;869;-81
2024/03/16 11:08:11;;;;;;;;;;;;;;;21.69;26.29;98333.94;4985297;28;1349;-81
2024/03/16 11:10:38;;;;;;;;;;;;;;;21.70;26.22;98329.88;4998757;28;1032;-81
2024/03/16 11:13:10;;;;;;;;;;;;;;;21.27;26.69;98325.06;4981930;28;1030;-81
2024/03/16 11:15:38;;;;;;;;;;;;;;;21.04;27.24;98327.97;4976097;28;839;-82
2024/03/16 11:18:15;;;;;;;;;;;;;;;21.47;26.61;98327.16;4959634;28;879;-81
2024/03/16 11:20:43;;;;;;;;;;;;;;;21.61;26.78;98326.84;4960090;28;938;-81
2024/03/16 11:23:20;;;;;;;;;;;;;;;21.67;26.34;98308.09;4953234;28;1891;-81
2024/03/16 11:25:45;;;;;;;;;;;;;;;21.88;26.15;98317.38;4963479;28;1007;-80
2024/03/16 11:28:11;;;;;;;;;;;;;;;21.71;26.27;98308.00;4962424;28;1198;-81
2024/03/16 11:30:37;;;;;;;;;;;;;;;21.55;26.54;98305.94;4962890;28;1032;-81
2024/03/16 11:33:17;;;;;;;;;;;;;;;21.18;26.88;98299.38;4968071;28;1407;-81
2024/03/16 11:35:43;;;;;;;;;;;;;;;21.71;26.53;98300.34;4986988;28;1192;-81
2024/03/16 11:38:15;;;;;;;;;;;;;;;21.75;26.49;98289.69;5001489;28;957;-81
2024/03/16 11:40:41;;;;;;;;;;;;;;;21.76;26.30;98299.00;5003081;28;970;-81
2024/03/16 11:43:09;;;;;;;;;;;;;;;21.82;26.30;98292.38;5000955;28;1948;-81
2024/03/16 11:45:36;;;;;;;;;;;;;;;21.81;26.53;98290.81;4959417;29;863;-81
2024/03/16 11:48:05;;;;;;;;;;;;;;;21.77;26.05;98284.41;4974656;28;1311;-82
2024/03/16 11:50:31;;;;;;;;;;;;;;;21.48;26.54;98292.72;4976047;28;1088;-81
2024/03/16 11:52:56;;;;;;;;;;;;;;;21.46;26.89;98292.38;4975386;28;991;-81
2024/03/16 11:55:22;;;;;;;;;;;;;;;21.69;26.52;98285.00;4959517;29;930;-81
2024/03/16 11:57:48;;;;;;;;;;;;;;;21.93;26.32;98291.34;4959667;28;823;-81
2024/03/16 12:00:17;;;;;;;;;;;;;;;21.79;26.36;98290.41;4959367;29;975;-81
2024/03/16 12:02:45;;;;;;;;;;;;;;;21.88;26.21;98292.66;4958426;28;1315;-81
2024/03/16 12:05:12;;;;;;;;;;;;;;;21.87;26.29;98288.25;4959051;29;1993;-81
2024/03/16 12:07:38;;;;;;;;;;;;;;;21.38;26.83;98295.78;4980035;28;892;-81
2024/03/16 12:10:05;;;;;;;;;;;;;;;21.43;26.76;98296.06;4981726;28;896;-81
2024/03/16 12:12:30;;;;;;;;;;;;;;;21.71;26.68;98289.00;4981666;28;1509;-81
2024/03/16 12:15:28;;;;;;;;;;;;;;;21.69;26.74;98287.84;4997755;28;819;-81
2024/03/16 12:17:54;;;;;;;;;;;;;;;21.89;26.61;98290.63;4997870;28;995;-81
2024/03/16 12:20:20;;;;;;;;;;;;;;;21.93;26.33;98289.31;4983634;28;1013;-81
2024/03/16 12:22:53;;;;;;;;;;;;;;;21.72;26.32;98286.97;4985932;28;939;-81
2024/03/16 12:25:25;;;;;;;;;;;;;;;21.55;26.66;98280.44;4985368;28;1963;-81
2024/03/16 12:27:50;;;;;;;;;;;;;;;21.29;27.35;98277.31;5000141;28;1477;-81
2024/03/16 12:30:16;;;;;;;;;;;;;;;21.64;26.60;98277.81;4985050;28;927;-81
2024/03/16 12:32:42;;;;;;;;;;;;;;;21.74;26.56;98282.44;4946704;29;891;-81
2024/03/16 12:35:09;;;;;;;;;;;;;;;21.76;26.63;98282.00;4946371;29;895;-81
2024/03/16 12:37:37;;;;;;;;;;;;;;;21.73;26.83;98282.91;4946374;29;1502;-81
2024/03/16 12:40:03;;;;;;;;;;;;;;;21.58;26.71;98276.75;4946835;29;879;-81
2024/03/16 12:42:29;;;;;;;;;;;;;;;21.70;26.62;98278.88;4931110;29;994;-81
2024/03/16 12:44:59;;;;;;;;;;;;;;;21.33;27.29;98283.72;4945735;29;1910;-81
2024/03/16 12:47:26;;;;;;;;;;;;;;;21.57;26.93;98280.81;4946755;29;1012;-81
2024/03/16 12:49:53;;;;;;;;;;;;;;;21.80;26.79;98277.84;4945613;29;917;-82
2024/03/16 12:52:21;;;;;;;;;;;;;;;21.47;26.99;98270.53;4963315;28;1438;-81
2024/03/16 12:54:46;;;;;;;;;;;;;;;21.72;26.74;98270.78;4984171;28;929;-81
2024/03/16 12:57:12;;;;;;;;;;;;;;;21.90;26.61;98272.38;5001378;28;1042;-81
2024/03/16 12:59:38;;;;;;;;;;;;;;;21.58;26.72;98271.09;4995760;28;1406;-81
2024/03/16 13:02:03;;;;;;;;;;;;;;;21.47;26.88;98271.31;4981534;28;1550;-81